createdAt,value
2017-08-07T00:01:00.651Z,1022.68
2017-08-07T00:02:10.480Z,1022.68
2017-08-07T00:03:20.009Z,1022.66
2017-08-07T00:04:29.219Z,1022.6
2017-08-07T00:05:38.757Z,1022.59
2017-08-07T00:06:48.291Z,1022.58
2017-08-07T00:07:57.828Z,1022.53
2017-08-07T00:09:07.357Z,1022.55
2017-08-07T00:10:16.566Z,1022.52
2017-08-07T00:11:25.770Z,1022.54
2017-08-07T00:12:34.666Z,1022.56
2017-08-07T00:13:44.350Z,1022.52
2017-08-07T00:14:53.879Z,1022.54
2017-08-07T00:16:03.731Z,1022.55
2017-08-07T00:17:12.937Z,1022.57
2017-08-07T00:18:23.115Z,1022.56
2017-08-07T00:19:33.079Z,1022.56
2017-08-07T00:20:41.959Z,1022.6
2017-08-07T00:21:51.172Z,1022.55
2017-08-07T00:23:00.702Z,1022.56
2017-08-07T00:24:09.911Z,1022.54
2017-08-07T00:25:19.917Z,1022.54
2017-08-07T00:26:29.454Z,1022.51
2017-08-07T00:27:39.306Z,1022.56
2017-08-07T00:28:48.510Z,1022.5
2017-08-07T00:29:58.052Z,1022.5
2017-08-07T00:31:07.797Z,1022.5
2017-08-07T00:32:17.978Z,1022.45
2017-08-07T00:33:28.173Z,1022.51
2017-08-07T00:34:38.025Z,1022.45
2017-08-07T00:35:46.921Z,1022.5
2017-08-07T00:36:56.173Z,1022.48
2017-08-07T00:38:06.026Z,1022.52
2017-08-07T00:39:15.230Z,1022.56
2017-08-07T00:40:24.761Z,1022.53
2017-08-07T00:41:34.292Z,1022.54
2017-08-07T00:42:43.970Z,1022.53
2017-08-07T00:43:52.850Z,1022.51
2017-08-07T00:45:02.376Z,1022.51
2017-08-07T00:46:11.903Z,1022.47
2017-08-07T00:47:21.110Z,1022.46
2017-08-07T00:48:30.617Z,1022.48
2017-08-07T00:49:39.827Z,1022.51
2017-08-07T00:50:49.028Z,1022.47
2017-08-07T00:51:57.906Z,1022.44
2017-08-07T00:53:07.761Z,1022.43
2017-08-07T00:54:17.612Z,1022.43
2017-08-07T00:55:27.142Z,1022.42
2017-08-07T00:56:36.026Z,1022.43
2017-08-07T00:57:44.916Z,1022.4
2017-08-07T00:58:54.125Z,1022.42
2017-08-07T01:00:03.430Z,1022.38
2017-08-07T01:01:13.013Z,1022.37
2017-08-07T01:02:22.867Z,1022.37
2017-08-07T01:03:32.069Z,1022.37
2017-08-07T01:04:41.597Z,1022.3
2017-08-07T01:05:51.272Z,1022.35
2017-08-07T01:07:00.799Z,1022.33
2017-08-07T01:08:10.330Z,1022.36
2017-08-07T01:09:19.531Z,1022.35
2017-08-07T01:10:29.061Z,1022.36
2017-08-07T01:11:38.269Z,1022.37
2017-08-07T01:12:47.473Z,1022.36
2017-08-07T01:13:57.326Z,1022.38
2017-08-07T01:15:06.853Z,1022.37
2017-08-07T01:16:16.383Z,1022.36
2017-08-07T01:17:26.253Z,1022.37
2017-08-07T01:18:35.459Z,1022.4
2017-08-07T01:19:44.986Z,1022.36
2017-08-07T01:20:54.517Z,1022.34
2017-08-07T01:22:03.400Z,1022.34
2017-08-07T01:23:12.979Z,1022.32
2017-08-07T01:24:22.500Z,1022.31
2017-08-07T01:25:31.704Z,1022.32
2017-08-07T01:26:41.554Z,1022.32
2017-08-07T01:27:51.086Z,1022.31
2017-08-07T01:29:00.765Z,1022.28
2017-08-07T01:30:09.969Z,1022.29
2017-08-07T01:31:19.179Z,1022.3
2017-08-07T01:32:28.386Z,1022.3
2017-08-07T01:33:37.588Z,1022.25
2017-08-07T01:34:47.166Z,1022.29
2017-08-07T01:35:56.692Z,1022.27
2017-08-07T01:37:05.900Z,1022.21
2017-08-07T01:38:15.103Z,1022.19
2017-08-07T01:39:24.318Z,1022.22
2017-08-07T01:40:33.196Z,1022.2
2017-08-07T01:41:42.729Z,1022.22
2017-08-07T01:42:51.936Z,1022.2
2017-08-07T01:44:01.464Z,1022.18
2017-08-07T01:45:10.993Z,1022.15
2017-08-07T01:46:20.773Z,1022.18
2017-08-07T01:47:30.300Z,1022.15
2017-08-07T01:48:39.508Z,1022.13
2017-08-07T01:49:48.393Z,1022.15
2017-08-07T01:50:57.919Z,1022.15
2017-08-07T01:52:07.605Z,1022.18
2017-08-07T01:53:16.806Z,1022.19
2017-08-07T01:54:26.010Z,1022.18
2017-08-07T01:55:35.860Z,1022.16
2017-08-07T01:56:45.079Z,1022.2
2017-08-07T01:57:55.078Z,1022.19
2017-08-07T01:59:04.292Z,1022.18
2017-08-07T02:00:13.823Z,1022.15
2017-08-07T02:01:23.361Z,1022.15
2017-08-07T02:02:33.215Z,1022.14
2017-08-07T02:03:42.195Z,1022.13
2017-08-07T02:04:51.405Z,1022.09
2017-08-07T02:06:00.611Z,1022.11
2017-08-07T02:07:09.816Z,1022.03
2017-08-07T02:08:19.664Z,1022.06
2017-08-07T02:09:29.516Z,1022.04
2017-08-07T02:10:39.363Z,1022.06
2017-08-07T02:11:49.218Z,1022
2017-08-07T02:12:58.740Z,1022.01
2017-08-07T02:14:07.625Z,1022.01
2017-08-07T02:15:17.354Z,1022.02
2017-08-07T02:16:26.557Z,1021.95
2017-08-07T02:17:35.760Z,1021.93
2017-08-07T02:18:45.290Z,1021.96
2017-08-07T02:19:55.139Z,1021.99
2017-08-07T02:21:04.968Z,1021.98
2017-08-07T02:22:14.172Z,1022
2017-08-07T02:23:24.026Z,1021.99
2017-08-07T02:24:33.233Z,1022
2017-08-07T02:25:42.436Z,1022.02
2017-08-07T02:26:52.046Z,1022
2017-08-07T02:28:01.575Z,1021.99
2017-08-07T02:29:11.098Z,1022.02
2017-08-07T02:30:20.304Z,1022.01
2017-08-07T02:31:30.155Z,1022.01
2017-08-07T02:32:39.783Z,1022
2017-08-07T02:33:49.634Z,1022.02
2017-08-07T02:34:59.166Z,1022.03
2017-08-07T02:36:08.698Z,1021.99
2017-08-07T02:37:18.546Z,1021.93
2017-08-07T02:38:27.750Z,1021.96
2017-08-07T02:39:37.276Z,1021.96
2017-08-07T02:40:46.816Z,1021.95
2017-08-07T02:41:56.028Z,1021.94
2017-08-07T02:43:05.883Z,1021.98
2017-08-07T02:44:15.253Z,1021.96
2017-08-07T02:45:24.785Z,1021.95
2017-08-07T02:46:34.646Z,1021.9
2017-08-07T02:47:43.874Z,1021.89
2017-08-07T02:48:52.761Z,1021.84
2017-08-07T02:50:02.087Z,1021.87
2017-08-07T02:51:11.937Z,1021.89
2017-08-07T02:52:21.143Z,1021.83
2017-08-07T02:53:30.349Z,1021.83
2017-08-07T02:54:39.552Z,1021.81
2017-08-07T02:55:49.393Z,1021.79
2017-08-07T02:56:58.595Z,1021.77
2017-08-07T02:58:08.448Z,1021.75
2017-08-07T02:59:17.977Z,1021.78
2017-08-07T03:00:26.856Z,1021.78
2017-08-07T03:01:36.534Z,1021.76
2017-08-07T03:02:46.386Z,1021.74
2017-08-07T03:03:55.912Z,1021.79
2017-08-07T03:05:05.442Z,1021.77
2017-08-07T03:06:14.652Z,1021.75
2017-08-07T03:07:24.331Z,1021.71
2017-08-07T03:08:33.866Z,1021.77
2017-08-07T03:09:43.397Z,1021.75
2017-08-07T03:10:53.243Z,1021.69
2017-08-07T03:12:02.450Z,1021.74
2017-08-07T03:13:12.299Z,1021.73
2017-08-07T03:14:21.502Z,1021.71
2017-08-07T03:15:30.389Z,1021.74
2017-08-07T03:16:39.917Z,1021.67
2017-08-07T03:17:49.125Z,1021.64
2017-08-07T03:18:58.648Z,1021.62
2017-08-07T03:20:08.495Z,1021.66
2017-08-07T03:21:18.350Z,1021.62
2017-08-07T03:22:28.202Z,1021.67
2017-08-07T03:23:37.733Z,1021.62
2017-08-07T03:24:47.083Z,1021.63
2017-08-07T03:25:56.614Z,1021.6
2017-08-07T03:27:06.467Z,1021.61
2017-08-07T03:28:16.002Z,1021.62
2017-08-07T03:29:25.851Z,1021.59
2017-08-07T03:30:35.206Z,1021.63
2017-08-07T03:31:44.744Z,1021.64
2017-08-07T03:32:54.600Z,1021.62
2017-08-07T03:34:03.802Z,1021.64
2017-08-07T03:35:13.333Z,1021.62
2017-08-07T03:36:22.860Z,1021.65
2017-08-07T03:37:32.064Z,1021.64
2017-08-07T03:38:41.278Z,1021.63
2017-08-07T03:39:50.484Z,1021.66
2017-08-07T03:41:00.656Z,1021.63
2017-08-07T03:42:10.980Z,1021.63
2017-08-07T03:43:21.157Z,1021.63
2017-08-07T03:44:30.038Z,1021.63
2017-08-07T03:45:39.563Z,1021.64
2017-08-07T03:46:49.089Z,1021.64
2017-08-07T03:47:58.866Z,1021.65
2017-08-07T03:49:08.073Z,1021.6
2017-08-07T03:50:17.923Z,1021.61
2017-08-07T03:51:27.459Z,1021.59
2017-08-07T03:52:37.311Z,1021.56
2017-08-07T03:53:47.420Z,1021.51
2017-08-07T03:54:56.623Z,1021.53
2017-08-07T03:56:06.150Z,1021.57
2017-08-07T03:57:15.684Z,1021.57
2017-08-07T03:58:25.538Z,1021.58
2017-08-07T03:59:35.538Z,1021.58
2017-08-07T04:00:44.740Z,1021.54
2017-08-07T04:01:54.276Z,1021.56
2017-08-07T04:03:04.128Z,1021.56
2017-08-07T04:04:13.014Z,1021.57
2017-08-07T04:05:21.898Z,1021.54
2017-08-07T04:06:31.755Z,1021.58
2017-08-07T04:07:41.933Z,1021.58
2017-08-07T04:08:51.143Z,1021.58
2017-08-07T04:10:00.674Z,1021.59
2017-08-07T04:11:10.303Z,1021.56
2017-08-07T04:12:20.155Z,1021.56
2017-08-07T04:13:30.005Z,1021.52
2017-08-07T04:14:39.528Z,1021.52
2017-08-07T04:15:49.066Z,1021.5
2017-08-07T04:16:58.895Z,1021.51
2017-08-07T04:18:08.421Z,1021.48
2017-08-07T04:19:17.958Z,1021.5
2017-08-07T04:20:27.160Z,1021.48
2017-08-07T04:21:37.014Z,1021.48
2017-08-07T04:22:46.592Z,1021.45
2017-08-07T04:23:56.446Z,1021.43
2017-08-07T04:25:05.982Z,1021.46
2017-08-07T04:26:15.838Z,1021.46
2017-08-07T04:27:25.695Z,1021.43
2017-08-07T04:28:35.372Z,1021.44
2017-08-07T04:29:44.581Z,1021.42
2017-08-07T04:30:54.107Z,1021.45
2017-08-07T04:32:03.309Z,1021.41
2017-08-07T04:33:12.839Z,1021.47
2017-08-07T04:34:22.527Z,1021.42
2017-08-07T04:35:31.732Z,1021.41
2017-08-07T04:36:41.586Z,1021.43
2017-08-07T04:37:51.127Z,1021.44
2017-08-07T04:39:00.660Z,1021.45
2017-08-07T04:40:11.035Z,1021.43
2017-08-07T04:41:20.889Z,1021.47
2017-08-07T04:42:31.382Z,1021.43
2017-08-07T04:43:40.911Z,1021.45
2017-08-07T04:44:50.800Z,1021.43
2017-08-07T04:46:00.653Z,1021.45
2017-08-07T04:47:10.506Z,1021.48
2017-08-07T04:48:20.679Z,1021.47
2017-08-07T04:49:30.214Z,1021.52
2017-08-07T04:50:39.743Z,1021.48
2017-08-07T04:51:48.948Z,1021.49
2017-08-07T04:52:57.827Z,1021.5
2017-08-07T04:54:07.681Z,1021.52
2017-08-07T04:55:17.222Z,1021.48
2017-08-07T04:56:26.433Z,1021.5
2017-08-07T04:57:35.801Z,1021.5
2017-08-07T04:58:45.329Z,1021.49
2017-08-07T04:59:54.858Z,1021.55
2017-08-07T05:01:04.712Z,1021.55
2017-08-07T05:02:14.563Z,1021.55
2017-08-07T05:03:24.142Z,1021.55
2017-08-07T05:04:34.316Z,1021.54
2017-08-07T05:05:43.522Z,1021.5
2017-08-07T05:06:52.407Z,1021.55
2017-08-07T05:08:01.951Z,1021.54
2017-08-07T05:09:11.146Z,1021.58
2017-08-07T05:10:20.351Z,1021.49
2017-08-07T05:11:29.883Z,1021.49
2017-08-07T05:12:39.740Z,1021.5
2017-08-07T05:13:49.589Z,1021.44
2017-08-07T05:14:58.951Z,1021.43
2017-08-07T05:16:08.802Z,1021.48
2017-08-07T05:17:18.662Z,1021.47
2017-08-07T05:18:27.876Z,1021.47
2017-08-07T05:19:37.404Z,1021.51
2017-08-07T05:20:46.342Z,1021.5
2017-08-07T05:21:56.193Z,1021.52
2017-08-07T05:23:05.735Z,1021.49
2017-08-07T05:24:15.264Z,1021.48
2017-08-07T05:25:24.467Z,1021.48
2017-08-07T05:26:34.464Z,1021.49
2017-08-07T05:27:43.993Z,1021.48
2017-08-07T05:28:54.171Z,1021.48
2017-08-07T05:30:04.350Z,1021.49
2017-08-07T05:31:13.886Z,1021.51
2017-08-07T05:32:23.397Z,1021.52
2017-08-07T05:33:32.604Z,1021.51
2017-08-07T05:34:41.487Z,1021.48
2017-08-07T05:35:50.368Z,1021.45
2017-08-07T05:36:59.583Z,1021.44
2017-08-07T05:38:09.114Z,1021.36
2017-08-07T05:39:18.650Z,1021.47
2017-08-07T05:40:28.837Z,1021.36
2017-08-07T05:41:38.369Z,1021.41
2017-08-07T05:42:47.252Z,1021.38
2017-08-07T05:43:57.184Z,1021.4
2017-08-07T05:45:07.365Z,1021.35
2017-08-07T05:46:16.892Z,1021.39
2017-08-07T05:47:26.423Z,1021.36
2017-08-07T05:48:35.955Z,1021.38
2017-08-07T05:49:44.887Z,1021.32
2017-08-07T05:50:54.104Z,1021.4
2017-08-07T05:52:02.986Z,1021.39
2017-08-07T05:53:12.521Z,1021.38
2017-08-07T05:54:22.427Z,1021.41
2017-08-07T05:55:32.426Z,1021.39
2017-08-07T05:56:41.965Z,1021.36
2017-08-07T05:57:51.170Z,1021.39
2017-08-07T05:59:01.039Z,1021.4
2017-08-07T06:00:11.218Z,1021.38
2017-08-07T06:01:21.328Z,1021.36
2017-08-07T06:02:31.197Z,1021.37
2017-08-07T06:03:40.410Z,1021.38
2017-08-07T06:04:49.296Z,1021.37
2017-08-07T06:05:58.513Z,1021.34
2017-08-07T06:07:08.040Z,1021.36
2017-08-07T06:08:17.576Z,1021.39
2017-08-07T06:09:27.217Z,1021.35
2017-08-07T06:10:37.080Z,1021.38
2017-08-07T06:11:46.614Z,1021.4
2017-08-07T06:12:55.828Z,1021.38
2017-08-07T06:14:04.713Z,1021.38
2017-08-07T06:15:14.250Z,1021.43
2017-08-07T06:16:23.780Z,1021.4
2017-08-07T06:17:33.314Z,1021.4
2017-08-07T06:18:42.210Z,1021.4
2017-08-07T06:19:52.060Z,1021.37
2017-08-07T06:21:02.240Z,1021.37
2017-08-07T06:22:11.123Z,1021.33
2017-08-07T06:23:21.293Z,1021.31
2017-08-07T06:24:31.149Z,1021.32
2017-08-07T06:25:40.686Z,1021.34
2017-08-07T06:26:50.539Z,1021.35
2017-08-07T06:27:59.424Z,1021.37
2017-08-07T06:29:08.639Z,1021.33
2017-08-07T06:30:18.167Z,1021.28
2017-08-07T06:31:27.710Z,1021.25
2017-08-07T06:32:36.650Z,1021.22
2017-08-07T06:33:46.186Z,1021.26
2017-08-07T06:34:55.715Z,1021.27
2017-08-07T06:36:05.573Z,1021.3
2017-08-07T06:37:14.784Z,1021.3
2017-08-07T06:38:25.119Z,1021.31
2017-08-07T06:39:34.326Z,1021.29
2017-08-07T06:40:44.187Z,1021.3
2017-08-07T06:41:54.046Z,1021.31
2017-08-07T06:43:03.905Z,1021.35
2017-08-07T06:44:13.171Z,1021.33
2017-08-07T06:45:22.700Z,1021.31
2017-08-07T06:46:32.228Z,1021.29
2017-08-07T06:47:41.439Z,1021.24
2017-08-07T06:48:50.320Z,1021.23
2017-08-07T06:49:59.950Z,1021.21
2017-08-07T06:51:10.139Z,1021.24
2017-08-07T06:52:19.025Z,1021.21
2017-08-07T06:53:28.878Z,1021.19
2017-08-07T06:54:38.748Z,1021.18
2017-08-07T06:55:48.529Z,1021.18
2017-08-07T06:56:58.059Z,1021.14
2017-08-07T06:58:08.241Z,1021.14
2017-08-07T06:59:18.419Z,1021.13
2017-08-07T07:00:27.954Z,1021.15
2017-08-07T07:01:37.634Z,1021.13
2017-08-07T07:02:46.848Z,1021.14
2017-08-07T07:03:56.069Z,1021.16
2017-08-07T07:05:05.606Z,1021.12
2017-08-07T07:06:15.146Z,1021.13
2017-08-07T07:07:25.075Z,1021.15
2017-08-07T07:08:34.638Z,1021.13
2017-08-07T07:09:44.130Z,1021.18
2017-08-07T07:10:53.380Z,1021.18
2017-08-07T07:12:02.915Z,1021.19
2017-08-07T07:13:12.699Z,1021.19
2017-08-07T07:14:21.907Z,1021.2
2017-08-07T07:15:31.439Z,1021.19
2017-08-07T07:16:41.620Z,1021.22
2017-08-07T07:17:51.501Z,1021.22
2017-08-07T07:19:01.831Z,1021.17
2017-08-07T07:20:12.010Z,1021.2
2017-08-07T07:21:21.220Z,1021.18
2017-08-07T07:22:30.754Z,1021.17
2017-08-07T07:23:40.290Z,1021.17
2017-08-07T07:24:49.656Z,1021.21
2017-08-07T07:25:58.546Z,1021.21
2017-08-07T07:27:07.753Z,1021.16
2017-08-07T07:28:16.962Z,1021.17
2017-08-07T07:29:25.855Z,1021.19
2017-08-07T07:30:35.539Z,1021.2
2017-08-07T07:31:44.426Z,1021.14
2017-08-07T07:32:53.634Z,1021.12
2017-08-07T07:34:03.513Z,1021.11
2017-08-07T07:35:12.722Z,1021.12
2017-08-07T07:36:22.330Z,1021.09
2017-08-07T07:37:32.529Z,1021.11
2017-08-07T07:38:41.745Z,1021.07
2017-08-07T07:39:52.250Z,1021.05
2017-08-07T07:41:01.794Z,1021.05
2017-08-07T07:42:12.028Z,1021.01
2017-08-07T07:43:22.205Z,1020.99
2017-08-07T07:44:31.740Z,1021
2017-08-07T07:45:41.612Z,1020.96
2017-08-07T07:46:50.828Z,1020.93
2017-08-07T07:48:00.845Z,1020.9
2017-08-07T07:49:11.024Z,1020.9
2017-08-07T07:50:20.281Z,1020.91
2017-08-07T07:51:29.809Z,1020.85
2017-08-07T07:52:39.670Z,1020.86
2017-08-07T07:53:49.232Z,1020.88
2017-08-07T07:54:58.443Z,1020.86
2017-08-07T07:56:07.652Z,1020.86
2017-08-07T07:57:16.535Z,1020.82
2017-08-07T07:58:26.068Z,1020.8
2017-08-07T07:59:35.427Z,1020.82
2017-08-07T08:00:44.639Z,1020.83
2017-08-07T08:01:54.179Z,1020.81
2017-08-07T08:03:04.035Z,1020.78
2017-08-07T08:04:12.916Z,1020.79
2017-08-07T08:05:21.950Z,1020.83
2017-08-07T08:06:31.809Z,1020.79
2017-08-07T08:07:41.688Z,1020.78
2017-08-07T08:08:50.897Z,1020.8
2017-08-07T08:10:00.429Z,1020.8
2017-08-07T08:11:10.334Z,1020.81
2017-08-07T08:12:19.548Z,1020.82
2017-08-07T08:13:29.402Z,1020.8
2017-08-07T08:14:38.932Z,1020.79
2017-08-07T08:15:48.467Z,1020.79
2017-08-07T08:16:57.726Z,1020.83
2017-08-07T08:18:07.267Z,1020.8
2017-08-07T08:19:16.822Z,1020.8
2017-08-07T08:20:26.355Z,1020.8
2017-08-07T08:21:35.575Z,1020.85
2017-08-07T08:22:45.087Z,1020.81
2017-08-07T08:23:54.312Z,1020.8
2017-08-07T08:25:04.491Z,1020.81
2017-08-07T08:26:14.026Z,1020.81
2017-08-07T08:27:23.236Z,1020.85
2017-08-07T08:28:32.273Z,1020.82
2017-08-07T08:29:41.500Z,1020.84
2017-08-07T08:30:50.713Z,1020.82
2017-08-07T08:32:00.572Z,1020.8
2017-08-07T08:33:09.785Z,1020.81
2017-08-07T08:34:19.097Z,1020.81
2017-08-07T08:35:27.988Z,1020.84
2017-08-07T08:36:37.196Z,1020.83
2017-08-07T08:37:46.419Z,1020.81
2017-08-07T08:38:55.304Z,1020.77
2017-08-07T08:40:05.141Z,1020.83
2017-08-07T08:41:14.672Z,1020.79
2017-08-07T08:42:23.557Z,1020.81
2017-08-07T08:43:33.103Z,1020.82
2017-08-07T08:44:41.988Z,1020.82
2017-08-07T08:45:51.821Z,1020.81
2017-08-07T08:47:01.038Z,1020.72
2017-08-07T08:48:10.582Z,1020.78
2017-08-07T08:49:19.801Z,1020.77
2017-08-07T08:50:29.661Z,1020.73
2017-08-07T08:51:38.594Z,1020.75
2017-08-07T08:52:48.128Z,1020.74
2017-08-07T08:53:57.986Z,1020.76
2017-08-07T08:55:06.873Z,1020.74
2017-08-07T08:56:16.082Z,1020.74
2017-08-07T08:57:25.920Z,1020.73
2017-08-07T08:58:35.128Z,1020.75
2017-08-07T08:59:44.985Z,1020.74
2017-08-07T09:00:54.845Z,1020.71
2017-08-07T09:02:04.700Z,1020.68
2017-08-07T09:03:14.574Z,1020.65
2017-08-07T09:04:23.788Z,1020.73
2017-08-07T09:05:33.320Z,1020.73
2017-08-07T09:06:42.224Z,1020.71
2017-08-07T09:07:51.770Z,1020.72
2017-08-07T09:09:01.033Z,1020.69
2017-08-07T09:10:10.888Z,1020.73
2017-08-07T09:11:21.071Z,1020.66
2017-08-07T09:12:30.606Z,1020.63
2017-08-07T09:13:39.492Z,1020.58
2017-08-07T09:14:48.477Z,1020.67
2017-08-07T09:15:58.015Z,1020.62
2017-08-07T09:17:07.867Z,1020.63
2017-08-07T09:18:17.094Z,1020.61
2017-08-07T09:19:26.628Z,1020.64
2017-08-07T09:20:35.989Z,1020.62
2017-08-07T09:21:45.210Z,1020.61
2017-08-07T09:22:55.065Z,1020.6
2017-08-07T09:24:04.278Z,1020.58
2017-08-07T09:25:13.815Z,1020.61
2017-08-07T09:26:23.597Z,1020.6
2017-08-07T09:27:33.150Z,1020.54
2017-08-07T09:28:42.681Z,1020.54
2017-08-07T09:29:52.568Z,1020.47
2017-08-07T09:31:02.424Z,1020.56
2017-08-07T09:32:11.795Z,1020.47
2017-08-07T09:33:21.004Z,1020.53
2017-08-07T09:34:30.861Z,1020.55
2017-08-07T09:35:40.069Z,1020.58
2017-08-07T09:36:49.606Z,1020.5
2017-08-07T09:37:59.417Z,1020.45
2017-08-07T09:39:09.274Z,1020.47
2017-08-07T09:40:18.481Z,1020.46
2017-08-07T09:41:28.024Z,1020.43
2017-08-07T09:42:38.203Z,1020.45
2017-08-07T09:43:47.142Z,1020.41
2017-08-07T09:44:57.320Z,1020.47
2017-08-07T09:46:07.510Z,1020.4
2017-08-07T09:47:17.042Z,1020.42
2017-08-07T09:48:26.573Z,1020.42
2017-08-07T09:49:35.518Z,1020.4
2017-08-07T09:50:44.729Z,1020.4
2017-08-07T09:51:53.621Z,1020.35
2017-08-07T09:53:03.163Z,1020.34
2017-08-07T09:54:12.371Z,1020.37
2017-08-07T09:55:21.508Z,1020.35
2017-08-07T09:56:30.394Z,1020.37
2017-08-07T09:57:39.923Z,1020.32
2017-08-07T09:58:49.465Z,1020.3
2017-08-07T09:59:58.999Z,1020.34
2017-08-07T10:01:08.038Z,1020.33
2017-08-07T10:02:17.898Z,1020.36
2017-08-07T10:03:27.755Z,1020.37
2017-08-07T10:04:37.289Z,1020.34
2017-08-07T10:05:46.824Z,1020.35
2017-08-07T10:06:56.409Z,1020.36
2017-08-07T10:08:06.272Z,1020.37
2017-08-07T10:09:16.464Z,1020.39
2017-08-07T10:10:26.329Z,1020.28
2017-08-07T10:11:35.868Z,1020.24
2017-08-07T10:12:44.909Z,1020.24
2017-08-07T10:13:54.120Z,1020.26
2017-08-07T10:15:03.329Z,1020.24
2017-08-07T10:16:12.874Z,1020.28
2017-08-07T10:17:22.088Z,1020.25
2017-08-07T10:18:31.077Z,1020.23
2017-08-07T10:19:39.966Z,1020.23
2017-08-07T10:20:49.499Z,1020.22
2017-08-07T10:21:58.707Z,1020.2
2017-08-07T10:23:07.929Z,1020.2
2017-08-07T10:24:17.518Z,1020.23
2017-08-07T10:25:26.413Z,1020.22
2017-08-07T10:26:35.625Z,1020.23
2017-08-07T10:27:45.167Z,1020.17
2017-08-07T10:28:54.058Z,1020.19
2017-08-07T10:30:04.065Z,1020.24
2017-08-07T10:31:13.607Z,1020.28
2017-08-07T10:32:23.141Z,1020.25
2017-08-07T10:33:32.352Z,1020.25
2017-08-07T10:34:41.885Z,1020.26
2017-08-07T10:35:51.572Z,1020.24
2017-08-07T10:37:00.784Z,1020.18
2017-08-07T10:38:10.318Z,1020.17
2017-08-07T10:39:20.177Z,1020.18
2017-08-07T10:40:29.391Z,1020.16
2017-08-07T10:41:39.229Z,1020.14
2017-08-07T10:42:48.783Z,1020.15
2017-08-07T10:43:58.645Z,1020.1
2017-08-07T10:45:08.185Z,1020.15
2017-08-07T10:46:17.721Z,1020.13
2017-08-07T10:47:26.997Z,1020.09
2017-08-07T10:48:36.205Z,1020.11
2017-08-07T10:49:45.744Z,1020.03
2017-08-07T10:50:54.957Z,1020.04
2017-08-07T10:52:04.173Z,1020.06
2017-08-07T10:53:14.420Z,1020.06
2017-08-07T10:54:23.633Z,1020.04
2017-08-07T10:55:33.501Z,1020.08
2017-08-07T10:56:43.033Z,1020.06
2017-08-07T10:57:52.569Z,1020.03
2017-08-07T10:59:02.301Z,1020.04
2017-08-07T11:00:11.838Z,1020.02
2017-08-07T11:01:21.068Z,1019.98
2017-08-07T11:02:29.960Z,1019.98
2017-08-07T11:03:39.826Z,1019.95
2017-08-07T11:04:48.713Z,1019.96
2017-08-07T11:05:57.924Z,1019.93
2017-08-07T11:07:07.135Z,1019.97
2017-08-07T11:08:17.323Z,1019.93
2017-08-07T11:09:26.214Z,1019.9
2017-08-07T11:10:35.476Z,1019.89
2017-08-07T11:11:45.010Z,1019.91
2017-08-07T11:12:54.236Z,1019.88
2017-08-07T11:14:03.128Z,1019.9
2017-08-07T11:15:12.662Z,1019.88
2017-08-07T11:16:21.600Z,1019.88
2017-08-07T11:17:31.134Z,1019.85
2017-08-07T11:18:41.321Z,1019.87
2017-08-07T11:19:50.857Z,1019.88
2017-08-07T11:21:00.400Z,1019.82
2017-08-07T11:22:10.039Z,1019.84
2017-08-07T11:23:19.584Z,1019.84
2017-08-07T11:24:29.136Z,1019.78
2017-08-07T11:25:38.676Z,1019.78
2017-08-07T11:26:48.536Z,1019.8
2017-08-07T11:27:57.957Z,1019.81
2017-08-07T11:29:07.825Z,1019.73
2017-08-07T11:30:17.407Z,1019.74
2017-08-07T11:31:26.951Z,1019.77
2017-08-07T11:32:36.170Z,1019.69
2017-08-07T11:33:45.543Z,1019.79
2017-08-07T11:34:54.443Z,1019.73
2017-08-07T11:36:03.977Z,1019.72
2017-08-07T11:37:12.864Z,1019.66
2017-08-07T11:38:22.400Z,1019.72
2017-08-07T11:39:32.508Z,1019.73
2017-08-07T11:40:42.052Z,1019.78
2017-08-07T11:41:51.267Z,1019.76
2017-08-07T11:43:00.804Z,1019.71
2017-08-07T11:44:10.014Z,1019.74
2017-08-07T11:45:19.333Z,1019.69
2017-08-07T11:46:28.869Z,1019.73
2017-08-07T11:47:38.733Z,1019.72
2017-08-07T11:48:47.945Z,1019.69
2017-08-07T11:49:58.127Z,1019.64
2017-08-07T11:51:07.983Z,1019.61
2017-08-07T11:52:16.872Z,1019.6
2017-08-07T11:53:26.407Z,1019.66
2017-08-07T11:54:35.944Z,1019.61
2017-08-07T11:55:44.833Z,1019.59
2017-08-07T11:56:54.099Z,1019.56
2017-08-07T11:58:03.636Z,1019.64
2017-08-07T11:59:12.860Z,1019.64
2017-08-07T12:00:22.073Z,1019.7
2017-08-07T12:01:31.936Z,1019.67
2017-08-07T12:02:41.874Z,1019.75
2017-08-07T12:03:51.413Z,1019.76
2017-08-07T12:05:00.971Z,1019.69
2017-08-07T12:06:10.832Z,1019.68
2017-08-07T12:07:20.053Z,1019.69
2017-08-07T12:08:29.502Z,1019.78
2017-08-07T12:09:39.368Z,1019.7
2017-08-07T12:10:49.234Z,1019.78
2017-08-07T12:11:58.450Z,1019.71
2017-08-07T12:13:07.991Z,1019.72
2017-08-07T12:14:17.544Z,1019.76
2017-08-07T12:15:26.777Z,1019.77
2017-08-07T12:16:35.999Z,1019.76
2017-08-07T12:17:45.219Z,1019.73
2017-08-07T12:18:54.443Z,1019.71
2017-08-07T12:20:03.811Z,1019.7
2017-08-07T12:21:13.351Z,1019.74
2017-08-07T12:22:22.570Z,1019.78
2017-08-07T12:23:31.790Z,1019.72
2017-08-07T12:24:41.706Z,1019.81
2017-08-07T12:25:51.552Z,1019.77
2017-08-07T12:27:00.455Z,1019.84
2017-08-07T12:28:10.323Z,1019.76
2017-08-07T12:29:19.544Z,1019.77
2017-08-07T12:30:29.089Z,1019.76
2017-08-07T12:31:39.027Z,1019.74
2017-08-07T12:32:48.250Z,1019.73
2017-08-07T12:33:57.477Z,1019.66
2017-08-07T12:35:06.697Z,1019.71
2017-08-07T12:36:16.247Z,1019.71
2017-08-07T12:37:26.095Z,1019.68
2017-08-07T12:38:35.642Z,1019.66
2017-08-07T12:39:44.862Z,1019.68
2017-08-07T12:40:55.065Z,1019.67
2017-08-07T12:42:04.612Z,1019.68
2017-08-07T12:43:14.039Z,1019.7
2017-08-07T12:44:23.913Z,1019.68
2017-08-07T12:45:34.109Z,1019.52
2017-08-07T12:46:43.349Z,1019.64
2017-08-07T12:47:52.899Z,1019.7
2017-08-07T12:49:02.935Z,1019.53
2017-08-07T12:50:12.663Z,1019.56
2017-08-07T12:51:22.235Z,1019.61
2017-08-07T12:52:31.791Z,1019.61
2017-08-07T12:53:41.666Z,1019.62
2017-08-07T12:54:51.195Z,1019.63
2017-08-07T12:56:00.748Z,1019.58
2017-08-07T12:57:09.983Z,1019.6
2017-08-07T12:58:20.200Z,1019.61
2017-08-07T12:59:30.075Z,1019.65
2017-08-07T13:00:39.528Z,1019.65
2017-08-07T13:01:48.431Z,1019.68
2017-08-07T13:02:57.663Z,1019.66
2017-08-07T13:04:07.878Z,1019.66
2017-08-07T13:05:17.918Z,1019.59
2017-08-07T13:06:28.268Z,1019.6
2017-08-07T13:07:37.493Z,1019.5
2017-08-07T13:08:46.431Z,1019.59
2017-08-07T13:09:55.670Z,1019.57
2017-08-07T13:11:05.557Z,1019.61
2017-08-07T13:12:15.890Z,1019.59
2017-08-07T13:13:25.775Z,1019.5
2017-08-07T13:14:35.202Z,1019.46
2017-08-07T13:15:44.750Z,1019.46
2017-08-07T13:16:53.652Z,1019.47
2017-08-07T13:18:03.263Z,1019.48
2017-08-07T13:19:12.821Z,1019.48
2017-08-07T13:20:22.730Z,1019.48
2017-08-07T13:21:31.959Z,1019.49
2017-08-07T13:22:42.154Z,1019.52
2017-08-07T13:23:51.810Z,1019.46
2017-08-07T13:25:01.061Z,1019.48
2017-08-07T13:26:10.610Z,1019.46
2017-08-07T13:27:20.161Z,1019.52
2017-08-07T13:28:29.714Z,1019.4
2017-08-07T13:29:39.564Z,1019.37
2017-08-07T13:30:49.120Z,1019.43
2017-08-07T13:31:58.992Z,1019.42
2017-08-07T13:33:08.860Z,1019.35
2017-08-07T13:34:18.737Z,1019.33
2017-08-07T13:35:28.210Z,1019.33
2017-08-07T13:36:37.433Z,1019.4
2017-08-07T13:37:46.654Z,1019.45
2017-08-07T13:38:55.557Z,1019.45
2017-08-07T13:40:05.104Z,1019.36
2017-08-07T13:41:14.912Z,1019.35
2017-08-07T13:42:24.148Z,1019.35
2017-08-07T13:43:34.016Z,1019.25
2017-08-07T13:44:43.889Z,1019.35
2017-08-07T13:45:53.115Z,1019.33
2017-08-07T13:47:03.095Z,1019.3
2017-08-07T13:48:12.646Z,1019.34
2017-08-07T13:49:21.899Z,1019.28
2017-08-07T13:50:31.458Z,1019.29
2017-08-07T13:51:40.684Z,1019.3
2017-08-07T13:52:50.600Z,1019.28
2017-08-07T13:54:00.799Z,1019.43
2017-08-07T13:55:10.028Z,1019.44
2017-08-07T13:56:19.785Z,1019.39
2017-08-07T13:57:30.016Z,1019.35
2017-08-07T13:58:40.228Z,1019.33
2017-08-07T13:59:49.495Z,1019.39
2017-08-07T14:00:58.727Z,1019.38
2017-08-07T14:02:08.278Z,1019.43
2017-08-07T14:03:17.178Z,1019.39
2017-08-07T14:04:26.555Z,1019.42